Mount Vernon, Missouri
Current Conditions -  °F | °C
As of 10:15 AM on Thursday 18 Dec 2014 (Local Time) from KHFJ Reporting Station
Haze Haze  
Wind Chill: 30°   Ceiling: 300
Heat Index: 36°   Visibility: 5mi
Dew Point: 36°   Wind: 7mph
Humidity: 100%   Direction: 150°SSE
Pressure: 30.18"   Gusts: NA
Location:  37.1°N, 93.82°W
Report Text: KHFJ 181615Z AUTO 15006KT 5SM BR OVC003 02/02 A3018 RMK AO2
Loading
Personal Weather Stations






























Interactive Weather Map New forecast layout! Learn more

10-Day Weather Forecast

Advertisements
Track Severe Weather on mobile